Leba, Poland

2:55 AM CET on November 01, 2014 (GMT +0100)
Rebiechowo | Change Station
CLOSE
Current Station
Airport
Location: Gdansk Airport,
Elevation: 453 ft
Nearby Weather Stations

Elev 453 ft 54.38 °N, 18.47 °E | Updated 25 minutes ago

Mostly Cloudy
Mostly Cloudy
43 °F
Feels Like 43 °F
N
2
Wind Variable Wind from Variable

Today
High -- | Low -- °F
--% Chance of Precip.
Yesterday
High -- | Low -- °F
Precip. -- in
6:52 AM 4:13 PM
First Quarter, 61% visible
Pressure 30.21 in
Visibility 2.2 miles
Clouds Few 300 ft
Mostly Cloudy 2200 ft
Dew Point 41 °F
Humidity 93%
Rainfall 0.00 in
Snow Depth Not available.
UV 0 out of 12
Pollen Not available.
Air Quality Not available.
Flu Activity Not available.
METAR EPGD 010130Z VRB02KT 3500 BR FEW003 BKN022 06/05 Q1023

More Conditions Fewer Conditions

Pressure 30.21 in
Visibility 2.2 miles
Clouds Few 300 ft
Mostly Cloudy 2200 ft
Dew Point 41 °F
Humidity 93%
Rainfall 0.00 in
Snow Depth Not available.
UV 0 out of 12
Pollen Not available.
Air Quality Not available.
Flu Activity Not available.
METAR EPGD 010130Z VRB02KT 3500 BR FEW003 BKN022 06/05 Q1023

More Conditions Fewer Conditions

10-Day Weather Forecast

Almanac

Astronomy

Nov. 01, 2014 Rise Set
Actual Time
Civil Twilight
Nautical Twilight
Astronomical Twilight
Moon
Length of Visible Light
Length of Day
Tomorrow will be .
, % of the Moon is Illuminated

Today's Extremes

Country Highs Country Lows

Community

WunderPhotos

Upload Photos

1,766,810 photos uploaded!

WunderBlogs® & News

Nearby

Air Quality

  Air Quality AQ Index Pollutant
Not available.

Snow Depth

Station Depth Elevation

Earthquake Activity

City Distance Mag. Time & Date
Minimum magnitude displayed is 2.5.

Coastal Water Temperatures

Place Temperature

Nearby Weather Stations